sensor_id;sensor_type;location;lat;lon;timestamp;noise_LAeq;noise_LA_min;noise_LA_max;noise_LA01;noise_LA95
67398;Laerm;57728;50.448;18.824;2022-08-21T00:00:27;31.32;29.66;34.21;;
67398;Laerm;57728;50.448;18.824;2022-08-21T00:02:29;31.30;30.02;37.19;;
67398;Laerm;57728;50.448;18.824;2022-08-21T00:04:31;31.44;30.06;38.70;;
67398;Laerm;57728;50.448;18.824;2022-08-21T00:06:32;32.05;30.13;47.35;;
67398;Laerm;57728;50.448;18.824;2022-08-21T00:08:35;32.08;30.32;41.03;;
67398;Laerm;57728;50.448;18.824;2022-08-21T00:10:39;36.68;30.62;58.54;;
67398;Laerm;57728;50.448;18.824;2022-08-21T00:12:41;38.61;30.87;59.88;;
67398;Laerm;57728;50.448;18.824;2022-08-21T00:14:45;41.81;31.26;63.33;;
67398;Laerm;57728;50.448;18.824;2022-08-21T00:16:46;37.89;30.51;63.89;;
67398;Laerm;57728;50.448;18.824;2022-08-21T00:18:47;38.32;30.60;61.89;;
67398;Laerm;57728;50.448;18.824;2022-08-21T00:20:50;38.98;30.63;61.52;;
67398;Laerm;57728;50.448;18.824;2022-08-21T00:22:53;32.30;30.26;48.15;;
67398;Laerm;57728;50.448;18.824;2022-08-21T00:24:54;38.82;30.36;62.95;;
67398;Laerm;57728;50.448;18.824;2022-08-21T00:26:56;31.62;30.04;39.76;;
67398;Laerm;57728;50.448;18.824;2022-08-21T00:28:58;31.62;30.00;46.51;;
67398;Laerm;57728;50.448;18.824;2022-08-21T00:30:59;33.46;30.13;53.54;;
67398;Laerm;57728;50.448;18.824;2022-08-21T00:33:03;34.19;30.22;50.69;;
67398;Laerm;57728;50.448;18.824;2022-08-21T00:35:08;31.86;30.04;41.70;;
67398;Laerm;57728;50.448;18.824;2022-08-21T00:37:10;31.58;29.76;39.91;;
67398;Laerm;57728;50.448;18.824;2022-08-21T00:39:12;31.51;29.88;38.02;;
67398;Laerm;57728;50.448;18.824;2022-08-21T00:41:13;31.57;30.08;38.58;;
67398;Laerm;57728;50.448;18.824;2022-08-21T00:43:21;31.59;29.68;42.52;;
67398;Laerm;57728;50.448;18.824;2022-08-21T00:45:24;34.32;30.08;46.72;;
67398;Laerm;57728;50.448;18.824;2022-08-21T00:47:25;31.52;30.00;36.30;;
67398;Laerm;57728;50.448;18.824;2022-08-21T00:49:27;31.22;29.98;38.27;;
67398;Laerm;57728;50.448;18.824;2022-08-21T00:51:39;31.24;29.80;40.03;;
67398;Laerm;57728;50.448;18.824;2022-08-21T00:53:45;31.72;29.84;41.86;;
67398;Laerm;57728;50.448;18.824;2022-08-21T00:55:47;32.54;29.89;42.55;;
67398;Laerm;57728;50.448;18.824;2022-08-21T00:57:54;31.72;30.14;40.02;;
67398;Laerm;57728;50.448;18.824;2022-08-21T01:00:00;31.57;30.04;39.89;;
67398;Laerm;57728;50.448;18.824;2022-08-21T01:02:05;31.62;30.08;37.78;;
67398;Laerm;57728;50.448;18.824;2022-08-21T01:04:08;31.96;30.06;41.48;;
67398;Laerm;57728;50.448;18.824;2022-08-21T01:06:09;32.75;29.87;44.53;;
67398;Laerm;57728;50.448;18.824;2022-08-21T01:08:15;31.62;30.06;42.67;;
67398;Laerm;57728;50.448;18.824;2022-08-21T01:10:19;31.91;29.96;43.58;;
67398;Laerm;57728;50.448;18.824;2022-08-21T01:12:33;31.24;29.95;38.54;;
67398;Laerm;57728;50.448;18.824;2022-08-21T01:14:35;31.34;29.77;37.29;;
67398;Laerm;57728;50.448;18.824;2022-08-21T01:16:36;31.23;29.71;33.17;;
67398;Laerm;57728;50.448;18.824;2022-08-21T01:18:38;31.32;29.94;35.41;;
67398;Laerm;57728;50.448;18.824;2022-08-21T01:23:05;31.97;29.99;39.19;;
67398;Laerm;57728;50.448;18.824;2022-08-21T01:25:12;31.30;29.95;38.39;;
67398;Laerm;57728;50.448;18.824;2022-08-21T01:27:13;31.24;29.97;32.60;;
67398;Laerm;57728;50.448;18.824;2022-08-21T01:31:39;31.67;30.02;35.10;;
67398;Laerm;57728;50.448;18.824;2022-08-21T01:33:40;31.30;30.02;34.88;;
67398;Laerm;57728;50.448;18.824;2022-08-21T01:35:42;31.43;29.81;34.64;;
67398;Laerm;57728;50.448;18.824;2022-08-21T01:37:45;31.50;30.13;34.63;;
67398;Laerm;57728;50.448;18.824;2022-08-21T01:39:47;31.29;30.07;32.79;;
67398;Laerm;57728;50.448;18.824;2022-08-21T01:41:48;31.32;29.96;32.78;;
67398;Laerm;57728;50.448;18.824;2022-08-21T01:43:50;31.44;29.93;33.75;;
67398;Laerm;57728;50.448;18.824;2022-08-21T01:45:51;31.35;29.92;34.08;;
67398;Laerm;57728;50.448;18.824;2022-08-21T01:47:52;31.35;29.84;38.38;;
67398;Laerm;57728;50.448;18.824;2022-08-21T01:49:54;31.37;30.04;39.67;;
67398;Laerm;57728;50.448;18.824;2022-08-21T01:51:56;31.49;30.09;34.55;;
67398;Laerm;57728;50.448;18.824;2022-08-21T01:53:57;31.36;30.12;33.27;;
67398;Laerm;57728;50.448;18.824;2022-08-21T01:55:59;31.27;29.93;32.69;;
67398;Laerm;57728;50.448;18.824;2022-08-21T01:58:01;31.31;29.83;33.46;;
67398;Laerm;57728;50.448;18.824;2022-08-21T02:00:08;31.39;29.88;36.95;;
67398;Laerm;57728;50.448;18.824;2022-08-21T02:02:13;31.49;29.93;37.20;;
67398;Laerm;57728;50.448;18.824;2022-08-21T02:04:16;31.94;30.09;44.54;;
67398;Laerm;57728;50.448;18.824;2022-08-21T02:06:17;31.57;29.86;36.95;;
67398;Laerm;57728;50.448;18.824;2022-08-21T02:08:19;31.39;30.06;33.68;;
67398;Laerm;57728;50.448;18.824;2022-08-21T02:10:31;31.34;29.92;35.59;;
67398;Laerm;57728;50.448;18.824;2022-08-21T02:12:33;31.52;29.94;34.47;;
67398;Laerm;57728;50.448;18.824;2022-08-21T02:14:37;31.28;30.04;32.82;;
67398;Laerm;57728;50.448;18.824;2022-08-21T02:16:40;31.37;30.12;33.56;;
67398;Laerm;57728;50.448;18.824;2022-08-21T02:18:42;31.70;29.91;36.78;;
67398;Laerm;57728;50.448;18.824;2022-08-21T02:20:48;31.87;29.94;42.24;;
67398;Laerm;57728;50.448;18.824;2022-08-21T02:22:49;31.47;30.18;36.99;;
67398;Laerm;57728;50.448;18.824;2022-08-21T02:24:50;32.25;30.14;39.97;;
67398;Laerm;57728;50.448;18.824;2022-08-21T02:26:52;31.75;30.26;37.08;;
67398;Laerm;57728;50.448;18.824;2022-08-21T02:28:53;32.38;30.37;39.68;;
67398;Laerm;57728;50.448;18.824;2022-08-21T02:30:56;32.02;30.59;37.68;;
67398;Laerm;57728;50.448;18.824;2022-08-21T02:32:59;31.76;30.41;37.91;;
67398;Laerm;57728;50.448;18.824;2022-08-21T02:35:00;31.84;30.35;36.12;;
67398;Laerm;57728;50.448;18.824;2022-08-21T02:37:01;31.86;30.25;33.52;;
67398;Laerm;57728;50.448;18.824;2022-08-21T02:39:03;31.85;30.43;33.87;;
67398;Laerm;57728;50.448;18.824;2022-08-21T02:41:15;31.86;30.52;33.15;;
67398;Laerm;57728;50.448;18.824;2022-08-21T02:43:20;31.92;30.50;40.48;;
67398;Laerm;57728;50.448;18.824;2022-08-21T02:45:22;34.83;30.32;48.60;;
67398;Laerm;57728;50.448;18.824;2022-08-21T02:47:23;31.93;30.33;37.10;;
67398;Laerm;57728;50.448;18.824;2022-08-21T02:49:25;31.80;30.36;35.24;;
67398;Laerm;57728;50.448;18.824;2022-08-21T02:51:26;31.81;30.43;36.04;;
67398;Laerm;57728;50.448;18.824;2022-08-21T02:53:29;32.24;30.30;39.88;;
67398;Laerm;57728;50.448;18.824;2022-08-21T02:55:34;31.90;30.26;40.22;;
67398;Laerm;57728;50.448;18.824;2022-08-21T02:57:37;31.99;30.28;42.89;;
67398;Laerm;57728;50.448;18.824;2022-08-21T02:59:39;32.85;30.18;49.85;;
67398;Laerm;57728;50.448;18.824;2022-08-21T03:01:47;32.47;29.92;48.40;;
67398;Laerm;57728;50.448;18.824;2022-08-21T03:03:50;33.00;29.94;44.78;;
67398;Laerm;57728;50.448;18.824;2022-08-21T03:05:51;33.51;29.99;45.09;;
67398;Laerm;57728;50.448;18.824;2022-08-21T03:07:54;32.24;30.60;34.43;;
67398;Laerm;57728;50.448;18.824;2022-08-21T03:09:56;31.86;30.45;45.43;;
67398;Laerm;57728;50.448;18.824;2022-08-21T03:11:57;31.78;30.20;36.32;;
67398;Laerm;57728;50.448;18.824;2022-08-21T03:13:59;31.92;30.42;37.00;;
67398;Laerm;57728;50.448;18.824;2022-08-21T03:16:01;31.71;30.39;38.68;;
67398;Laerm;57728;50.448;18.824;2022-08-21T03:18:04;31.87;30.42;40.25;;
67398;Laerm;57728;50.448;18.824;2022-08-21T03:20:08;31.93;30.31;36.93;;
67398;Laerm;57728;50.448;18.824;2022-08-21T03:22:10;33.54;30.39;48.00;;
67398;Laerm;57728;50.448;18.824;2022-08-21T03:24:14;32.63;30.44;42.67;;
67398;Laerm;57728;50.448;18.824;2022-08-21T03:26:16;32.13;30.39;44.17;;
67398;Laerm;57728;50.448;18.824;2022-08-21T03:28:21;32.70;30.78;41.95;;
67398;Laerm;57728;50.448;18.824;2022-08-21T03:30:22;32.53;30.20;42.58;;
67398;Laerm;57728;50.448;18.824;2022-08-21T03:32:23;32.00;30.22;42.65;;
67398;Laerm;57728;50.448;18.824;2022-08-21T03:34:25;32.33;30.42;44.66;;
67398;Laerm;57728;50.448;18.824;2022-08-21T03:36:29;31.80;29.90;41.54;;
67398;Laerm;57728;50.448;18.824;2022-08-21T03:38:32;31.85;30.26;40.39;;
67398;Laerm;57728;50.448;18.824;2022-08-21T03:40:35;31.80;30.37;38.72;;
67398;Laerm;57728;50.448;18.824;2022-08-21T03:42:37;32.02;30.06;40.85;;
67398;Laerm;57728;50.448;18.824;2022-08-21T03:44:38;32.57;30.46;44.03;;
67398;Laerm;57728;50.448;18.824;2022-08-21T03:46:42;32.11;30.24;41.16;;
67398;Laerm;57728;50.448;18.824;2022-08-21T03:48:43;31.87;30.20;39.40;;
67398;Laerm;57728;50.448;18.824;2022-08-21T03:50:45;32.90;30.49;46.83;;
67398;Laerm;57728;50.448;18.824;2022-08-21T03:52:49;32.16;30.19;47.42;;
67398;Laerm;57728;50.448;18.824;2022-08-21T03:54:50;31.80;30.28;34.98;;
67398;Laerm;57728;50.448;18.824;2022-08-21T03:56:51;32.72;29.92;41.87;;
67398;Laerm;57728;50.448;18.824;2022-08-21T03:58:53;31.43;30.05;34.07;;
67398;Laerm;57728;50.448;18.824;2022-08-21T04:00:59;31.53;29.74;33.97;;
67398;Laerm;57728;50.448;18.824;2022-08-21T04:03:00;31.72;30.13;36.20;;
67398;Laerm;57728;50.448;18.824;2022-08-21T04:05:03;39.44;30.44;60.22;;
67398;Laerm;57728;50.448;18.824;2022-08-21T04:07:04;31.89;30.30;36.42;;
67398;Laerm;57728;50.448;18.824;2022-08-21T04:09:06;31.49;30.10;35.96;;
67398;Laerm;57728;50.448;18.824;2022-08-21T04:11:09;31.63;30.04;36.93;;
67398;Laerm;57728;50.448;18.824;2022-08-21T04:13:11;31.82;29.92;39.65;;
67398;Laerm;57728;50.448;18.824;2022-08-21T04:15:12;31.64;29.98;43.85;;
67398;Laerm;57728;50.448;18.824;2022-08-21T04:17:15;31.75;30.19;38.58;;
67398;Laerm;57728;50.448;18.824;2022-08-21T04:19:18;32.53;29.91;49.17;;
67398;Laerm;57728;50.448;18.824;2022-08-21T04:21:19;32.41;30.31;42.02;;
67398;Laerm;57728;50.448;18.824;2022-08-21T04:23:22;34.93;30.23;58.71;;
67398;Laerm;57728;50.448;18.824;2022-08-21T04:25:24;32.22;30.35;48.27;;
67398;Laerm;57728;50.448;18.824;2022-08-21T04:27:26;32.63;30.22;41.99;;
67398;Laerm;57728;50.448;18.824;2022-08-21T04:29:28;32.79;30.20;43.70;;
67398;Laerm;57728;50.448;18.824;2022-08-21T04:31:34;44.45;30.12;52.96;;
67398;Laerm;57728;50.448;18.824;2022-08-21T04:33:35;40.66;30.13;52.70;;
67398;Laerm;57728;50.448;18.824;2022-08-21T04:35:37;33.03;30.16;48.07;;
67398;Laerm;57728;50.448;18.824;2022-08-21T04:37:38;32.13;29.96;45.16;;
67398;Laerm;57728;50.448;18.824;2022-08-21T04:39:39;33.77;30.26;50.19;;
67398;Laerm;57728;50.448;18.824;2022-08-21T04:41:41;33.96;30.40;53.02;;
67398;Laerm;57728;50.448;18.824;2022-08-21T04:43:42;32.11;30.07;41.59;;
67398;Laerm;57728;50.448;18.824;2022-08-21T04:45:46;33.13;30.25;41.56;;
67398;Laerm;57728;50.448;18.824;2022-08-21T04:47:52;34.81;30.21;42.50;;
67398;Laerm;57728;50.448;18.824;2022-08-21T04:49:54;35.13;30.26;43.62;;
67398;Laerm;57728;50.448;18.824;2022-08-21T04:51:55;33.58;30.15;45.60;;
67398;Laerm;57728;50.448;18.824;2022-08-21T04:54:00;33.04;30.41;44.07;;
67398;Laerm;57728;50.448;18.824;2022-08-21T04:56:12;32.09;30.45;38.98;;
67398;Laerm;57728;50.448;18.824;2022-08-21T04:58:18;34.62;29.92;46.57;;
67398;Laerm;57728;50.448;18.824;2022-08-21T05:00:24;35.70;30.13;46.65;;
67398;Laerm;57728;50.448;18.824;2022-08-21T05:02:26;31.94;30.18;40.25;;
67398;Laerm;57728;50.448;18.824;2022-08-21T05:04:32;31.89;30.20;43.74;;
67398;Laerm;57728;50.448;18.824;2022-08-21T05:06:40;31.51;30.12;34.72;;
67398;Laerm;57728;50.448;18.824;2022-08-21T05:08:47;31.91;30.08;42.37;;
67398;Laerm;57728;50.448;18.824;2022-08-21T05:10:50;31.79;30.11;40.66;;
67398;Laerm;57728;50.448;18.824;2022-08-21T05:12:52;31.67;30.08;35.35;;
67398;Laerm;57728;50.448;18.824;2022-08-21T05:14:54;31.69;30.16;35.30;;
67398;Laerm;57728;50.448;18.824;2022-08-21T05:16:55;31.81;30.26;35.66;;
67398;Laerm;57728;50.448;18.824;2022-08-21T05:18:57;33.20;29.93;44.80;;
67398;Laerm;57728;50.448;18.824;2022-08-21T05:20:59;31.49;30.03;33.94;;
67398;Laerm;57728;50.448;18.824;2022-08-21T05:23:06;31.66;29.92;37.54;;
67398;Laerm;57728;50.448;18.824;2022-08-21T05:25:10;31.56;29.86;41.50;;
67398;Laerm;57728;50.448;18.824;2022-08-21T05:27:11;36.69;29.96;52.67;;
67398;Laerm;57728;50.448;18.824;2022-08-21T05:29:15;31.66;30.02;35.60;;
67398;Laerm;57728;50.448;18.824;2022-08-21T05:31:17;31.81;30.15;36.24;;
67398;Laerm;57728;50.448;18.824;2022-08-21T05:33:18;31.76;30.33;36.53;;
67398;Laerm;57728;50.448;18.824;2022-08-21T05:35:20;31.91;30.33;38.10;;
67398;Laerm;57728;50.448;18.824;2022-08-21T05:37:22;32.06;30.33;41.55;;
67398;Laerm;57728;50.448;18.824;2022-08-21T05:39:24;31.88;30.21;37.75;;
67398;Laerm;57728;50.448;18.824;2022-08-21T05:41:25;31.89;29.80;43.16;;
67398;Laerm;57728;50.448;18.824;2022-08-21T05:43:27;31.94;30.26;38.08;;
67398;Laerm;57728;50.448;18.824;2022-08-21T05:45:32;31.78;30.08;37.07;;
67398;Laerm;57728;50.448;18.824;2022-08-21T05:47:33;31.75;30.34;34.00;;
67398;Laerm;57728;50.448;18.824;2022-08-21T05:49:36;37.35;30.14;64.88;;
67398;Laerm;57728;50.448;18.824;2022-08-21T05:51:40;35.96;30.02;65.30;;
67398;Laerm;57728;50.448;18.824;2022-08-21T05:53:42;32.07;30.10;38.71;;
67398;Laerm;57728;50.448;18.824;2022-08-21T05:55:46;34.76;30.23;49.20;;
67398;Laerm;57728;50.448;18.824;2022-08-21T05:57:47;32.96;30.03;43.81;;
67398;Laerm;57728;50.448;18.824;2022-08-21T05:59:49;33.58;30.28;44.53;;
67398;Laerm;57728;50.448;18.824;2022-08-21T06:01:51;33.27;30.30;43.84;;
67398;Laerm;57728;50.448;18.824;2022-08-21T06:03:53;32.97;30.31;44.14;;
67398;Laerm;57728;50.448;18.824;2022-08-21T06:05:55;33.07;30.30;49.88;;
67398;Laerm;57728;50.448;18.824;2022-08-21T06:07:57;31.91;30.11;43.88;;
67398;Laerm;57728;50.448;18.824;2022-08-21T06:09:58;32.40;30.38;51.61;;
67398;Laerm;57728;50.448;18.824;2022-08-21T06:12:10;46.67;30.63;70.37;;
67398;Laerm;57728;50.448;18.824;2022-08-21T06:14:15;43.61;31.51;65.72;;
67398;Laerm;57728;50.448;18.824;2022-08-21T06:16:17;45.93;31.67;70.77;;
67398;Laerm;57728;50.448;18.824;2022-08-21T06:18:18;34.49;30.70;50.72;;
67398;Laerm;57728;50.448;18.824;2022-08-21T06:20:22;39.26;31.11;63.35;;
67398;Laerm;57728;50.448;18.824;2022-08-21T06:22:23;51.66;30.61;77.66;;
67398;Laerm;57728;50.448;18.824;2022-08-21T06:24:26;56.58;32.20;83.37;;
67398;Laerm;57728;50.448;18.824;2022-08-21T06:26:28;51.15;33.62;77.11;;
67398;Laerm;57728;50.448;18.824;2022-08-21T06:28:31;37.59;32.28;57.98;;
67398;Laerm;57728;50.448;18.824;2022-08-21T06:30:34;50.69;31.68;79.85;;
67398;Laerm;57728;50.448;18.824;2022-08-21T06:32:37;45.75;33.01;65.12;;
67398;Laerm;57728;50.448;18.824;2022-08-21T06:34:41;41.81;31.64;65.12;;
67398;Laerm;57728;50.448;18.824;2022-08-21T06:36:42;36.63;31.72;59.83;;
67398;Laerm;57728;50.448;18.824;2022-08-21T06:38:44;39.30;31.17;64.53;;
67398;Laerm;57728;50.448;18.824;2022-08-21T06:40:46;47.50;31.88;78.25;;
67398;Laerm;57728;50.448;18.824;2022-08-21T06:42:47;43.54;32.24;67.00;;
67398;Laerm;57728;50.448;18.824;2022-08-21T06:44:49;39.52;31.90;62.65;;
67398;Laerm;57728;50.448;18.824;2022-08-21T06:46:50;44.75;32.46;67.79;;
67398;Laerm;57728;50.448;18.824;2022-08-21T06:48:51;34.86;31.20;49.25;;
67398;Laerm;57728;50.448;18.824;2022-08-21T06:50:53;40.96;31.63;67.14;;
67398;Laerm;57728;50.448;18.824;2022-08-21T06:53:14;42.86;32.03;64.62;;
67398;Laerm;57728;50.448;18.824;2022-08-21T06:55:17;40.34;31.91;65.25;;
67398;Laerm;57728;50.448;18.824;2022-08-21T06:57:19;37.00;31.70;59.20;;
67398;Laerm;57728;50.448;18.824;2022-08-21T06:59:21;34.96;31.76;50.72;;
67398;Laerm;57728;50.448;18.824;2022-08-21T07:01:25;43.59;31.56;71.68;;
67398;Laerm;57728;50.448;18.824;2022-08-21T07:03:33;38.64;31.80;64.19;;
67398;Laerm;57728;50.448;18.824;2022-08-21T07:05:34;44.36;31.68;66.95;;
67398;Laerm;57728;50.448;18.824;2022-08-21T07:07:36;43.73;31.36;70.79;;
67398;Laerm;57728;50.448;18.824;2022-08-21T07:09:38;46.05;31.96;72.39;;
67398;Laerm;57728;50.448;18.824;2022-08-21T07:11:40;39.14;31.37;63.25;;
67398;Laerm;57728;50.448;18.824;2022-08-21T07:13:43;33.66;31.30;44.86;;
67398;Laerm;57728;50.448;18.824;2022-08-21T07:15:45;37.20;31.85;59.04;;
67398;Laerm;57728;50.448;18.824;2022-08-21T07:17:48;37.15;32.06;53.72;;
67398;Laerm;57728;50.448;18.824;2022-08-21T07:19:49;38.99;31.20;63.82;;
67398;Laerm;57728;50.448;18.824;2022-08-21T07:22:00;37.09;31.01;59.71;;
67398;Laerm;57728;50.448;18.824;2022-08-21T07:24:02;34.20;31.39;48.46;;
67398;Laerm;57728;50.448;18.824;2022-08-21T07:26:04;35.27;31.33;52.02;;
67398;Laerm;57728;50.448;18.824;2022-08-21T07:28:06;34.44;31.59;47.81;;
67398;Laerm;57728;50.448;18.824;2022-08-21T07:30:08;35.88;31.87;48.04;;
67398;Laerm;57728;50.448;18.824;2022-08-21T07:32:09;41.13;32.03;59.34;;
67398;Laerm;57728;50.448;18.824;2022-08-21T07:34:11;33.58;31.04;43.65;;
67398;Laerm;57728;50.448;18.824;2022-08-21T07:36:13;36.57;30.96;49.34;;
67398;Laerm;57728;50.448;18.824;2022-08-21T07:38:14;35.46;31.08;52.82;;
67398;Laerm;57728;50.448;18.824;2022-08-21T07:40:17;36.47;31.13;57.43;;
67398;Laerm;57728;50.448;18.824;2022-08-21T07:42:19;34.82;31.34;56.54;;
67398;Laerm;57728;50.448;18.824;2022-08-21T07:44:21;35.64;31.47;55.20;;
67398;Laerm;57728;50.448;18.824;2022-08-21T07:46:24;32.99;30.92;43.35;;
67398;Laerm;57728;50.448;18.824;2022-08-21T07:48:25;38.78;31.43;64.96;;
67398;Laerm;57728;50.448;18.824;2022-08-21T07:50:26;35.51;30.70;53.47;;
67398;Laerm;57728;50.448;18.824;2022-08-21T07:52:28;32.54;30.67;42.77;;
67398;Laerm;57728;50.448;18.824;2022-08-21T07:54:29;34.71;30.82;48.45;;
67398;Laerm;57728;50.448;18.824;2022-08-21T07:56:31;33.10;30.73;54.56;;
67398;Laerm;57728;50.448;18.824;2022-08-21T07:58:34;32.95;30.91;43.54;;
67398;Laerm;57728;50.448;18.824;2022-08-21T08:00:35;34.69;31.31;43.93;;
67398;Laerm;57728;50.448;18.824;2022-08-21T08:02:36;45.22;33.34;54.15;;
67398;Laerm;57728;50.448;18.824;2022-08-21T08:04:40;33.61;30.85;47.14;;
67398;Laerm;57728;50.448;18.824;2022-08-21T08:06:41;34.02;31.37;44.37;;
67398;Laerm;57728;50.448;18.824;2022-08-21T08:08:43;35.29;31.85;50.30;;
67398;Laerm;57728;50.448;18.824;2022-08-21T08:10:45;35.82;31.55;55.75;;
67398;Laerm;57728;50.448;18.824;2022-08-21T08:12:48;35.77;31.08;57.41;;
67398;Laerm;57728;50.448;18.824;2022-08-21T08:14:51;36.06;31.44;48.77;;
67398;Laerm;57728;50.448;18.824;2022-08-21T08:16:53;36.99;31.01;47.70;;
67398;Laerm;57728;50.448;18.824;2022-08-21T08:18:55;34.93;30.83;52.54;;
67398;Laerm;57728;50.448;18.824;2022-08-21T08:20:56;33.20;31.06;49.13;;
67398;Laerm;57728;50.448;18.824;2022-08-21T08:22:58;35.20;30.90;53.72;;
67398;Laerm;57728;50.448;18.824;2022-08-21T08:25:00;39.38;31.45;60.19;;
67398;Laerm;57728;50.448;18.824;2022-08-21T08:27:02;42.65;31.44;61.90;;
67398;Laerm;57728;50.448;18.824;2022-08-21T08:29:04;34.35;31.11;50.82;;
67398;Laerm;57728;50.448;18.824;2022-08-21T08:31:05;35.94;30.79;51.85;;
67398;Laerm;57728;50.448;18.824;2022-08-21T08:33:08;33.89;31.05;46.04;;
67398;Laerm;57728;50.448;18.824;2022-08-21T08:35:11;35.62;31.02;47.42;;
67398;Laerm;57728;50.448;18.824;2022-08-21T08:37:13;34.46;30.95;52.65;;
67398;Laerm;57728;50.448;18.824;2022-08-21T08:39:14;34.33;30.96;58.75;;
67398;Laerm;57728;50.448;18.824;2022-08-21T08:41:20;33.20;31.09;46.79;;
67398;Laerm;57728;50.448;18.824;2022-08-21T08:43:23;36.27;30.74;54.93;;
67398;Laerm;57728;50.448;18.824;2022-08-21T08:45:25;39.87;30.89;62.19;;
67398;Laerm;57728;50.448;18.824;2022-08-21T08:47:32;34.49;30.81;49.89;;
67398;Laerm;57728;50.448;18.824;2022-08-21T08:49:49;32.70;30.60;40.86;;
67398;Laerm;57728;50.448;18.824;2022-08-21T08:54:12;33.79;31.19;47.14;;
67398;Laerm;57728;50.448;18.824;2022-08-21T08:56:15;43.38;31.47;62.83;;
67398;Laerm;57728;50.448;18.824;2022-08-21T08:58:31;45.10;32.15;65.62;;
67398;Laerm;57728;50.448;18.824;2022-08-21T09:00:33;39.58;31.35;59.63;;
67398;Laerm;57728;50.448;18.824;2022-08-21T09:02:38;41.78;31.64;67.26;;
67398;Laerm;57728;50.448;18.824;2022-08-21T09:04:42;45.71;32.16;65.45;;
67398;Laerm;57728;50.448;18.824;2022-08-21T09:07:25;42.76;31.39;62.46;;
67398;Laerm;57728;50.448;18.824;2022-08-21T09:12:48;43.42;31.49;67.59;;
67398;Laerm;57728;50.448;18.824;2022-08-21T09:15:15;36.59;31.25;55.71;;
67398;Laerm;57728;50.448;18.824;2022-08-21T09:20:35;35.70;30.76;51.90;;
67398;Laerm;57728;50.448;18.824;2022-08-21T09:25:34;34.80;31.33;50.84;;
67398;Laerm;57728;50.448;18.824;2022-08-21T09:27:41;36.54;31.33;54.96;;
67398;Laerm;57728;50.448;18.824;2022-08-21T09:29:47;37.94;31.56;62.94;;
67398;Laerm;57728;50.448;18.824;2022-08-21T09:31:49;45.66;31.53;68.70;;
67398;Laerm;57728;50.448;18.824;2022-08-21T09:34:03;40.25;31.36;56.95;;
67398;Laerm;57728;50.448;18.824;2022-08-21T09:36:05;43.09;31.64;68.85;;
67398;Laerm;57728;50.448;18.824;2022-08-21T09:38:07;37.20;31.38;56.78;;
67398;Laerm;57728;50.448;18.824;2022-08-21T09:40:43;40.93;31.82;64.31;;
67398;Laerm;57728;50.448;18.824;2022-08-21T09:43:01;41.68;31.64;65.48;;
67398;Laerm;57728;50.448;18.824;2022-08-21T09:45:13;37.24;32.24;57.88;;
67398;Laerm;57728;50.448;18.824;2022-08-21T09:47:18;39.40;32.67;57.17;;
67398;Laerm;57728;50.448;18.824;2022-08-21T09:49:33;36.77;31.64;62.45;;
67398;Laerm;57728;50.448;18.824;2022-08-21T09:51:36;35.81;31.41;46.62;;
67398;Laerm;57728;50.448;18.824;2022-08-21T09:53:47;40.45;31.64;66.93;;
67398;Laerm;57728;50.448;18.824;2022-08-21T09:56:00;42.18;31.20;69.73;;
67398;Laerm;57728;50.448;18.824;2022-08-21T09:58:33;38.62;31.92;59.76;;
67398;Laerm;57728;50.448;18.824;2022-08-21T10:00:36;38.64;31.87;55.16;;
67398;Laerm;57728;50.448;18.824;2022-08-21T10:02:37;41.83;32.78;61.42;;
67398;Laerm;57728;50.448;18.824;2022-08-21T10:04:40;43.64;32.15;62.35;;
67398;Laerm;57728;50.448;18.824;2022-08-21T10:06:47;41.50;32.50;56.65;;
67398;Laerm;57728;50.448;18.824;2022-08-21T10:08:48;38.41;31.40;55.46;;
67398;Laerm;57728;50.448;18.824;2022-08-21T10:11:08;35.33;31.29;53.90;;
67398;Laerm;57728;50.448;18.824;2022-08-21T10:13:46;40.11;31.40;60.86;;
67398;Laerm;57728;50.448;18.824;2022-08-21T10:18:22;40.12;31.17;60.96;;
67398;Laerm;57728;50.448;18.824;2022-08-21T10:23:38;43.05;31.40;64.89;;
67398;Laerm;57728;50.448;18.824;2022-08-21T10:28:31;39.71;31.03;61.11;;
67398;Laerm;57728;50.448;18.824;2022-08-21T10:30:56;36.22;31.71;56.34;;
67398;Laerm;57728;50.448;18.824;2022-08-21T10:33:26;39.61;31.66;63.19;;
67398;Laerm;57728;50.448;18.824;2022-08-21T10:35:37;41.38;31.79;58.16;;
67398;Laerm;57728;50.448;18.824;2022-08-21T10:40:53;39.95;31.15;59.69;;
67398;Laerm;57728;50.448;18.824;2022-08-21T10:43:25;39.16;31.63;65.88;;
67398;Laerm;57728;50.448;18.824;2022-08-21T10:48:18;46.44;32.10;67.00;;
67398;Laerm;57728;50.448;18.824;2022-08-21T10:50:44;41.30;31.64;63.09;;
67398;Laerm;57728;50.448;18.824;2022-08-21T10:53:41;40.42;32.09;57.23;;
67398;Laerm;57728;50.448;18.824;2022-08-21T10:56:17;40.94;32.30;66.79;;
67398;Laerm;57728;50.448;18.824;2022-08-21T10:58:53;42.49;31.89;62.66;;
67398;Laerm;57728;50.448;18.824;2022-08-21T11:01:18;41.64;32.02;64.09;;
67398;Laerm;57728;50.448;18.824;2022-08-21T11:04:02;36.86;31.98;52.99;;
67398;Laerm;57728;50.448;18.824;2022-08-21T11:06:25;36.95;31.57;58.75;;
67398;Laerm;57728;50.448;18.824;2022-08-21T11:08:58;35.91;32.29;51.66;;
67398;Laerm;57728;50.448;18.824;2022-08-21T11:11:25;39.79;32.08;64.79;;
67398;Laerm;57728;50.448;18.824;2022-08-21T11:16:46;36.72;31.90;58.55;;
67398;Laerm;57728;50.448;18.824;2022-08-21T11:21:43;36.89;32.02;54.85;;
67398;Laerm;57728;50.448;18.824;2022-08-21T11:23:54;37.61;31.63;58.88;;
67398;Laerm;57728;50.448;18.824;2022-08-21T11:26:08;42.44;31.87;66.60;;
67398;Laerm;57728;50.448;18.824;2022-08-21T11:28:28;41.54;31.87;61.40;;
67398;Laerm;57728;50.448;18.824;2022-08-21T11:39:25;45.59;31.78;67.72;;
67398;Laerm;57728;50.448;18.824;2022-08-21T11:44:36;40.36;30.90;62.30;;
67398;Laerm;57728;50.448;18.824;2022-08-21T11:46:57;41.13;31.40;62.53;;
67398;Laerm;57728;50.448;18.824;2022-08-21T11:52:53;48.70;31.70;71.59;;
67398;Laerm;57728;50.448;18.824;2022-08-21T11:54:46;41.81;31.68;64.87;;
67398;Laerm;57728;50.448;18.824;2022-08-21T11:57:22;39.90;31.77;54.74;;
67398;Laerm;57728;50.448;18.824;2022-08-21T12:00:23;36.30;31.29;52.75;;
67398;Laerm;57728;50.448;18.824;2022-08-21T12:02:23;41.42;32.11;65.82;;
67398;Laerm;57728;50.448;18.824;2022-08-21T12:04:54;44.51;32.12;68.85;;
67398;Laerm;57728;50.448;18.824;2022-08-21T12:07:17;42.10;32.62;60.74;;
67398;Laerm;57728;50.448;18.824;2022-08-21T12:09:35;37.91;31.83;57.45;;
67398;Laerm;57728;50.448;18.824;2022-08-21T12:16:14;39.92;31.46;63.51;;
67398;Laerm;57728;50.448;18.824;2022-08-21T12:18:30;37.36;31.81;56.31;;
67398;Laerm;57728;50.448;18.824;2022-08-21T12:22:40;43.73;31.93;69.17;;
67398;Laerm;57728;50.448;18.824;2022-08-21T12:24:49;37.06;31.20;55.54;;
67398;Laerm;57728;50.448;18.824;2022-08-21T12:29:29;36.91;32.04;61.97;;
67398;Laerm;57728;50.448;18.824;2022-08-21T12:31:32;43.94;32.24;71.86;;
67398;Laerm;57728;50.448;18.824;2022-08-21T12:33:39;47.95;32.30;71.34;;